Terminal Aerodrome Forecast
Issued by NWS Pocatello, ID

Home | Current Version | Previous Version | Text Only | Print | Product List | Glossary On
Versions: 1 2 3 4 5 6 7 8 9 10 11 12 13 14 15 16 17 18
000
FTUS45 KPIH 251522 AAC
TAFIDA
TAF AMD
KIDA 251522Z 2515/2612 VRB05KT P6SM VCSH SCT008 BKN025 OVC050
     FM251800 23010G20KT P6SM VCTS SCT008 BKN025CB OVC050
     FM251900 24015G25KT P6SM VCTS BKN050CB BKN140
     FM260100 33008KT P6SM -SHRA VCTS BKN060CB BKN140
     FM260300 VRB05KT P6SM VCSH BKN060 BKN140
     FM260900 15006KT P6SM SCT060 BKN140=

USA.gov is the U.S. government's official web portal to all federal, state and local government web resources and services.